Página principal
METAR-TAF:

METAR-TAF

Aeroportos :

Bridgeport Municipal Airport

Bridgeport, Texas, Estados Unidos

latitude: 33-10-31N, longitude: 097-49-42W, altura: 260 m

Observação actual do tempo

O boletim foi feito há 17 minutos, às 23:35 UTC
Vento 11 kt de norte
Temperatura 9°C
Humidade 61%
Pressão 1011 hPa
Visibilidade: 16.1 km
Céu limpo

METAR: KXBP 152335Z AUTO 35011KT 10SM CLR 09/02 A2986 RMK AO2 T00940016

Hora: 17:52 (23:52 UTC)


TAF: em falta

Observações e previsões do tempo de mais de 4000 aeroportos (mensagens METAR e TAF).

As estações disponíveis são os pontos amarelos e vermelhos sobre o mapa.

Mova o rato sobre o mapa para ver o nome da estação.

Depois clique no ponto para visualizar as observações e previsões meteorológicas.

Para alterar o mapa : clique nos botões verdes com uma cruz preta para aumentar o zoom; no botão verde com uma pitada de zoom; ou nas setas verdes para mapas adjacentes.


METAR-TAF: